sensor_id;sensor_type;location;lat;lon;timestamp;P1;durP1;ratioP1;P2;durP2;ratioP2
76640;SDS011;65538;50.798;6.064;2023-02-17T00:00:18;21.63;;;12.20;;
76640;SDS011;65538;50.798;6.064;2023-02-17T00:02:43;17.40;;;9.00;;
76640;SDS011;65538;50.798;6.064;2023-02-17T00:05:08;20.30;;;10.87;;
76640;SDS011;65538;50.798;6.064;2023-02-17T00:07:34;18.13;;;10.02;;
76640;SDS011;65538;50.798;6.064;2023-02-17T00:09:59;13.70;;;7.20;;
76640;SDS011;65538;50.798;6.064;2023-02-17T00:12:25;17.38;;;10.57;;
76640;SDS011;65538;50.798;6.064;2023-02-17T00:14:51;16.48;;;8.30;;
76640;SDS011;65538;50.798;6.064;2023-02-17T00:17:17;23.42;;;9.48;;
76640;SDS011;65538;50.798;6.064;2023-02-17T00:19:42;16.93;;;8.97;;
76640;SDS011;65538;50.798;6.064;2023-02-17T00:22:07;19.03;;;11.27;;
76640;SDS011;65538;50.798;6.064;2023-02-17T00:24:32;17.17;;;8.60;;
76640;SDS011;65538;50.798;6.064;2023-02-17T00:26:58;18.17;;;11.35;;
76640;SDS011;65538;50.798;6.064;2023-02-17T00:29:23;15.87;;;8.40;;
76640;SDS011;65538;50.798;6.064;2023-02-17T00:31:50;16.63;;;10.23;;
76640;SDS011;65538;50.798;6.064;2023-02-17T00:34:16;16.50;;;9.40;;
76640;SDS011;65538;50.798;6.064;2023-02-17T00:36:41;15.60;;;8.63;;
76640;SDS011;65538;50.798;6.064;2023-02-17T00:39:07;14.48;;;7.75;;
76640;SDS011;65538;50.798;6.064;2023-02-17T00:41:32;19.08;;;10.63;;
76640;SDS011;65538;50.798;6.064;2023-02-17T00:43:57;18.80;;;8.83;;
76640;SDS011;65538;50.798;6.064;2023-02-17T00:46:23;17.10;;;8.20;;
76640;SDS011;65538;50.798;6.064;2023-02-17T00:48:48;20.63;;;10.27;;
76640;SDS011;65538;50.798;6.064;2023-02-17T00:51:14;20.60;;;11.27;;
76640;SDS011;65538;50.798;6.064;2023-02-17T00:53:39;13.85;;;6.70;;
76640;SDS011;65538;50.798;6.064;2023-02-17T00:56:05;15.65;;;8.40;;
76640;SDS011;65538;50.798;6.064;2023-02-17T00:58:31;16.08;;;8.32;;
76640;SDS011;65538;50.798;6.064;2023-02-17T01:00:56;17.53;;;10.27;;
76640;SDS011;65538;50.798;6.064;2023-02-17T01:03:22;16.10;;;8.27;;
76640;SDS011;65538;50.798;6.064;2023-02-17T01:05:48;14.30;;;8.65;;
76640;SDS011;65538;50.798;6.064;2023-02-17T01:08:14;16.38;;;10.75;;
76640;SDS011;65538;50.798;6.064;2023-02-17T01:10:40;14.48;;;9.30;;
76640;SDS011;65538;50.798;6.064;2023-02-17T01:13:05;16.77;;;11.15;;
76640;SDS011;65538;50.798;6.064;2023-02-17T01:15:31;15.20;;;9.65;;
76640;SDS011;65538;50.798;6.064;2023-02-17T01:18:00;16.20;;;8.13;;
76640;SDS011;65538;50.798;6.064;2023-02-17T01:20:26;21.05;;;10.38;;
76640;SDS011;65538;50.798;6.064;2023-02-17T01:22:52;16.98;;;9.35;;
76640;SDS011;65538;50.798;6.064;2023-02-17T01:25:23;14.65;;;9.05;;
76640;SDS011;65538;50.798;6.064;2023-02-17T01:27:48;19.30;;;10.93;;
76640;SDS011;65538;50.798;6.064;2023-02-17T01:30:14;14.23;;;6.97;;
76640;SDS011;65538;50.798;6.064;2023-02-17T01:32:39;17.60;;;9.00;;
76640;SDS011;65538;50.798;6.064;2023-02-17T01:35:04;16.23;;;10.60;;
76640;SDS011;65538;50.798;6.064;2023-02-17T01:37:31;17.15;;;10.73;;
76640;SDS011;65538;50.798;6.064;2023-02-17T01:39:56;13.82;;;8.13;;
76640;SDS011;65538;50.798;6.064;2023-02-17T01:42:21;15.07;;;8.73;;
76640;SDS011;65538;50.798;6.064;2023-02-17T01:45:47;18.50;;;11.70;;
76640;SDS011;65538;50.798;6.064;2023-02-17T01:47:42;17.60;;;9.30;;
76640;SDS011;65538;50.798;6.064;2023-02-17T01:50:07;14.50;;;9.23;;
76640;SDS011;65538;50.798;6.064;2023-02-17T01:52:33;19.38;;;11.70;;
76640;SDS011;65538;50.798;6.064;2023-02-17T01:54:59;15.20;;;8.73;;
76640;SDS011;65538;50.798;6.064;2023-02-17T01:57:26;14.95;;;8.98;;
76640;SDS011;65538;50.798;6.064;2023-02-17T01:59:54;12.05;;;7.65;;
76640;SDS011;65538;50.798;6.064;2023-02-17T02:02:20;20.05;;;10.43;;
76640;SDS011;65538;50.798;6.064;2023-02-17T02:04:46;14.20;;;7.03;;
76640;SDS011;65538;50.798;6.064;2023-02-17T02:07:14;17.70;;;7.82;;
76640;SDS011;65538;50.798;6.064;2023-02-17T02:09:51;13.85;;;8.15;;
76640;SDS011;65538;50.798;6.064;2023-02-17T02:12:18;13.15;;;7.40;;
76640;SDS011;65538;50.798;6.064;2023-02-17T02:14:44;16.05;;;10.27;;
76640;SDS011;65538;50.798;6.064;2023-02-17T02:25:07;14.20;;;8.30;;
76640;SDS011;65538;50.798;6.064;2023-02-17T02:35:23;14.23;;;9.40;;
76640;SDS011;65538;50.798;6.064;2023-02-17T02:40:16;14.47;;;8.57;;
76640;SDS011;65538;50.798;6.064;2023-02-17T02:42:44;15.93;;;11.07;;
76640;SDS011;65538;50.798;6.064;2023-02-17T02:45:10;14.18;;;9.27;;
76640;SDS011;65538;50.798;6.064;2023-02-17T02:47:41;14.57;;;8.57;;
76640;SDS011;65538;50.798;6.064;2023-02-17T02:50:06;14.07;;;9.05;;
76640;SDS011;65538;50.798;6.064;2023-02-17T02:52:35;15.80;;;8.48;;
76640;SDS011;65538;50.798;6.064;2023-02-17T02:55:09;10.10;;;6.07;;
76640;SDS011;65538;50.798;6.064;2023-02-17T03:10:18;15.90;;;9.45;;
76640;SDS011;65538;50.798;6.064;2023-02-17T03:12:43;14.20;;;7.93;;
76640;SDS011;65538;50.798;6.064;2023-02-17T03:15:11;18.67;;;7.13;;
76640;SDS011;65538;50.798;6.064;2023-02-17T03:20:03;14.57;;;9.55;;
76640;SDS011;65538;50.798;6.064;2023-02-17T03:22:30;13.70;;;8.70;;
76640;SDS011;65538;50.798;6.064;2023-02-17T03:24:57;12.65;;;8.85;;
76640;SDS011;65538;50.798;6.064;2023-02-17T03:27:24;12.82;;;6.95;;
76640;SDS011;65538;50.798;6.064;2023-02-17T03:29:49;12.73;;;7.55;;
76640;SDS011;65538;50.798;6.064;2023-02-17T03:32:14;14.52;;;9.23;;
76640;SDS011;65538;50.798;6.064;2023-02-17T03:34:40;14.60;;;7.50;;
76640;SDS011;65538;50.798;6.064;2023-02-17T03:37:05;15.77;;;8.03;;
76640;SDS011;65538;50.798;6.064;2023-02-17T03:39:30;13.83;;;8.07;;
76640;SDS011;65538;50.798;6.064;2023-02-17T03:41:55;14.27;;;8.33;;
76640;SDS011;65538;50.798;6.064;2023-02-17T03:44:21;13.73;;;9.77;;
76640;SDS011;65538;50.798;6.064;2023-02-17T03:46:46;14.83;;;9.43;;
76640;SDS011;65538;50.798;6.064;2023-02-17T03:49:11;12.30;;;7.27;;
76640;SDS011;65538;50.798;6.064;2023-02-17T03:51:37;14.32;;;8.15;;
76640;SDS011;65538;50.798;6.064;2023-02-17T03:54:02;14.57;;;7.53;;
76640;SDS011;65538;50.798;6.064;2023-02-17T03:56:28;9.98;;;5.63;;
76640;SDS011;65538;50.798;6.064;2023-02-17T03:58:53;14.43;;;9.43;;
76640;SDS011;65538;50.798;6.064;2023-02-17T04:01:18;11.20;;;6.17;;
76640;SDS011;65538;50.798;6.064;2023-02-17T04:03:44;13.45;;;8.93;;
76640;SDS011;65538;50.798;6.064;2023-02-17T04:06:09;13.63;;;7.20;;
76640;SDS011;65538;50.798;6.064;2023-02-17T04:08:35;14.07;;;8.18;;
76640;SDS011;65538;50.798;6.064;2023-02-17T04:11:01;13.45;;;7.70;;
76640;SDS011;65538;50.798;6.064;2023-02-17T04:13:26;13.75;;;9.07;;
76640;SDS011;65538;50.798;6.064;2023-02-17T04:15:52;12.15;;;7.32;;
76640;SDS011;65538;50.798;6.064;2023-02-17T04:18:17;13.88;;;8.27;;
76640;SDS011;65538;50.798;6.064;2023-02-17T04:20:43;14.60;;;8.27;;
76640;SDS011;65538;50.798;6.064;2023-02-17T04:23:08;9.88;;;6.13;;
76640;SDS011;65538;50.798;6.064;2023-02-17T04:25:34;10.52;;;6.15;;
76640;SDS011;65538;50.798;6.064;2023-02-17T04:28:00;12.10;;;7.05;;
76640;SDS011;65538;50.798;6.064;2023-02-17T04:30:26;12.38;;;7.57;;
76640;SDS011;65538;50.798;6.064;2023-02-17T04:32:51;11.37;;;5.80;;
76640;SDS011;65538;50.798;6.064;2023-02-17T04:35:16;13.63;;;6.60;;
76640;SDS011;65538;50.798;6.064;2023-02-17T04:37:42;14.13;;;7.20;;
76640;SDS011;65538;50.798;6.064;2023-02-17T04:40:07;10.17;;;5.70;;
76640;SDS011;65538;50.798;6.064;2023-02-17T04:42:34;10.02;;;5.85;;
76640;SDS011;65538;50.798;6.064;2023-02-17T04:45:00;10.52;;;6.68;;
76640;SDS011;65538;50.798;6.064;2023-02-17T04:47:25;10.53;;;6.00;;
76640;SDS011;65538;50.798;6.064;2023-02-17T04:49:50;11.50;;;7.13;;
76640;SDS011;65538;50.798;6.064;2023-02-17T04:52:15;11.83;;;6.73;;
76640;SDS011;65538;50.798;6.064;2023-02-17T04:54:41;10.80;;;6.67;;
76640;SDS011;65538;50.798;6.064;2023-02-17T04:57:06;14.90;;;6.50;;
76640;SDS011;65538;50.798;6.064;2023-02-17T04:59:31;11.70;;;6.97;;
76640;SDS011;65538;50.798;6.064;2023-02-17T05:01:56;8.90;;;5.83;;
76640;SDS011;65538;50.798;6.064;2023-02-17T05:04:22;10.17;;;5.07;;
76640;SDS011;65538;50.798;6.064;2023-02-17T05:06:47;9.43;;;6.17;;
76640;SDS011;65538;50.798;6.064;2023-02-17T05:09:12;10.70;;;5.60;;
76640;SDS011;65538;50.798;6.064;2023-02-17T05:11:40;10.17;;;6.80;;
76640;SDS011;65538;50.798;6.064;2023-02-17T05:14:05;10.73;;;6.20;;
76640;SDS011;65538;50.798;6.064;2023-02-17T05:16:31;11.47;;;7.70;;
76640;SDS011;65538;50.798;6.064;2023-02-17T05:18:56;11.93;;;6.67;;
76640;SDS011;65538;50.798;6.064;2023-02-17T05:21:21;8.93;;;6.07;;
76640;SDS011;65538;50.798;6.064;2023-02-17T05:23:47;10.10;;;5.83;;
76640;SDS011;65538;50.798;6.064;2023-02-17T05:26:12;11.60;;;6.80;;
76640;SDS011;65538;50.798;6.064;2023-02-17T05:28:37;10.07;;;5.60;;
76640;SDS011;65538;50.798;6.064;2023-02-17T05:31:03;9.25;;;5.68;;
76640;SDS011;65538;50.798;6.064;2023-02-17T05:33:28;9.85;;;6.50;;
76640;SDS011;65538;50.798;6.064;2023-02-17T05:35:54;8.07;;;4.40;;
76640;SDS011;65538;50.798;6.064;2023-02-17T05:38:19;9.87;;;6.67;;
76640;SDS011;65538;50.798;6.064;2023-02-17T05:40:44;8.90;;;5.53;;
76640;SDS011;65538;50.798;6.064;2023-02-17T05:43:09;9.47;;;5.37;;
76640;SDS011;65538;50.798;6.064;2023-02-17T05:45:35;11.70;;;6.40;;
76640;SDS011;65538;50.798;6.064;2023-02-17T05:48:00;12.43;;;5.93;;
76640;SDS011;65538;50.798;6.064;2023-02-17T05:50:25;8.07;;;5.07;;
76640;SDS011;65538;50.798;6.064;2023-02-17T05:52:50;9.47;;;5.50;;
76640;SDS011;65538;50.798;6.064;2023-02-17T05:55:16;10.97;;;5.53;;
76640;SDS011;65538;50.798;6.064;2023-02-17T05:57:41;10.77;;;5.23;;
76640;SDS011;65538;50.798;6.064;2023-02-17T06:00:06;9.93;;;6.60;;
76640;SDS011;65538;50.798;6.064;2023-02-17T06:02:32;9.18;;;5.40;;
76640;SDS011;65538;50.798;6.064;2023-02-17T06:04:57;11.55;;;6.50;;
76640;SDS011;65538;50.798;6.064;2023-02-17T06:07:22;11.30;;;7.70;;
76640;SDS011;65538;50.798;6.064;2023-02-17T06:09:48;11.80;;;6.73;;
76640;SDS011;65538;50.798;6.064;2023-02-17T06:12:13;14.63;;;5.13;;
76640;SDS011;65538;50.798;6.064;2023-02-17T06:14:38;12.73;;;5.93;;
76640;SDS011;65538;50.798;6.064;2023-02-17T06:17:05;10.48;;;6.90;;
76640;SDS011;65538;50.798;6.064;2023-02-17T06:19:30;11.07;;;6.22;;
76640;SDS011;65538;50.798;6.064;2023-02-17T06:21:55;13.27;;;6.90;;
76640;SDS011;65538;50.798;6.064;2023-02-17T06:24:21;11.45;;;6.65;;
76640;SDS011;65538;50.798;6.064;2023-02-17T06:26:46;11.23;;;6.25;;
76640;SDS011;65538;50.798;6.064;2023-02-17T06:29:11;9.50;;;5.67;;
76640;SDS011;65538;50.798;6.064;2023-02-17T06:31:37;11.80;;;6.43;;
76640;SDS011;65538;50.798;6.064;2023-02-17T06:34:02;12.90;;;5.77;;
76640;SDS011;65538;50.798;6.064;2023-02-17T06:36:27;10.33;;;5.80;;
76640;SDS011;65538;50.798;6.064;2023-02-17T06:38:52;10.33;;;5.97;;
76640;SDS011;65538;50.798;6.064;2023-02-17T06:41:17;10.63;;;5.40;;
76640;SDS011;65538;50.798;6.064;2023-02-17T06:43:43;13.40;;;7.30;;
76640;SDS011;65538;50.798;6.064;2023-02-17T06:46:08;12.07;;;6.67;;
76640;SDS011;65538;50.798;6.064;2023-02-17T06:48:33;9.30;;;5.27;;
76640;SDS011;65538;50.798;6.064;2023-02-17T06:50:59;10.07;;;5.45;;
76640;SDS011;65538;50.798;6.064;2023-02-17T06:53:24;10.40;;;5.93;;
76640;SDS011;65538;50.798;6.064;2023-02-17T06:55:49;7.80;;;5.15;;
76640;SDS011;65538;50.798;6.064;2023-02-17T06:58:15;10.67;;;6.57;;
76640;SDS011;65538;50.798;6.064;2023-02-17T07:00:40;9.63;;;5.43;;
76640;SDS011;65538;50.798;6.064;2023-02-17T07:03:05;10.67;;;5.77;;
76640;SDS011;65538;50.798;6.064;2023-02-17T07:05:33;9.68;;;5.32;;
76640;SDS011;65538;50.798;6.064;2023-02-17T07:07:58;11.77;;;6.57;;
76640;SDS011;65538;50.798;6.064;2023-02-17T07:10:23;14.67;;;7.93;;
76640;SDS011;65538;50.798;6.064;2023-02-17T07:12:48;13.67;;;8.87;;
76640;SDS011;65538;50.798;6.064;2023-02-17T07:15:14;15.63;;;9.73;;
76640;SDS011;65538;50.798;6.064;2023-02-17T07:17:39;11.97;;;8.20;;
76640;SDS011;65538;50.798;6.064;2023-02-17T07:20:05;14.23;;;9.07;;
76640;SDS011;65538;50.798;6.064;2023-02-17T07:22:30;13.13;;;7.15;;
76640;SDS011;65538;50.798;6.064;2023-02-17T07:24:55;12.77;;;7.70;;
76640;SDS011;65538;50.798;6.064;2023-02-17T07:27:21;13.83;;;8.87;;
76640;SDS011;65538;50.798;6.064;2023-02-17T07:29:46;11.63;;;7.03;;
76640;SDS011;65538;50.798;6.064;2023-02-17T07:32:11;12.57;;;7.87;;
76640;SDS011;65538;50.798;6.064;2023-02-17T07:34:36;12.23;;;7.33;;
76640;SDS011;65538;50.798;6.064;2023-02-17T07:37:02;11.18;;;6.15;;
76640;SDS011;65538;50.798;6.064;2023-02-17T07:39:27;12.77;;;6.63;;
76640;SDS011;65538;50.798;6.064;2023-02-17T07:41:53;13.20;;;7.93;;
76640;SDS011;65538;50.798;6.064;2023-02-17T07:44:18;14.00;;;8.37;;
76640;SDS011;65538;50.798;6.064;2023-02-17T07:46:43;11.17;;;6.93;;
76640;SDS011;65538;50.798;6.064;2023-02-17T07:49:08;11.33;;;7.03;;
76640;SDS011;65538;50.798;6.064;2023-02-17T07:51:33;11.00;;;6.60;;
76640;SDS011;65538;50.798;6.064;2023-02-17T07:53:59;11.50;;;6.87;;
76640;SDS011;65538;50.798;6.064;2023-02-17T07:56:24;9.00;;;5.35;;
76640;SDS011;65538;50.798;6.064;2023-02-17T07:58:50;9.80;;;7.07;;
76640;SDS011;65538;50.798;6.064;2023-02-17T08:01:20;10.97;;;7.63;;
76640;SDS011;65538;50.798;6.064;2023-02-17T08:03:45;9.80;;;5.50;;
76640;SDS011;65538;50.798;6.064;2023-02-17T08:06:12;14.15;;;8.50;;
76640;SDS011;65538;50.798;6.064;2023-02-17T08:08:37;10.02;;;5.85;;
76640;SDS011;65538;50.798;6.064;2023-02-17T08:11:21;9.07;;;6.22;;
76640;SDS011;65538;50.798;6.064;2023-02-17T08:14:05;9.48;;;6.63;;
76640;SDS011;65538;50.798;6.064;2023-02-17T08:16:30;12.37;;;7.27;;
76640;SDS011;65538;50.798;6.064;2023-02-17T08:18:56;10.10;;;5.57;;
76640;SDS011;65538;50.798;6.064;2023-02-17T08:21:22;9.30;;;5.37;;
76640;SDS011;65538;50.798;6.064;2023-02-17T08:23:47;8.88;;;6.15;;
76640;SDS011;65538;50.798;6.064;2023-02-17T08:26:12;8.33;;;4.47;;
76640;SDS011;65538;50.798;6.064;2023-02-17T08:28:38;9.43;;;6.43;;
76640;SDS011;65538;50.798;6.064;2023-02-17T08:31:04;8.65;;;5.72;;
76640;SDS011;65538;50.798;6.064;2023-02-17T08:33:29;10.70;;;4.80;;
76640;SDS011;65538;50.798;6.064;2023-02-17T08:35:54;8.67;;;5.73;;
76640;SDS011;65538;50.798;6.064;2023-02-17T08:38:19;11.40;;;6.20;;
76640;SDS011;65538;50.798;6.064;2023-02-17T08:40:45;9.17;;;5.03;;
76640;SDS011;65538;50.798;6.064;2023-02-17T08:43:10;8.90;;;5.20;;
76640;SDS011;65538;50.798;6.064;2023-02-17T08:45:35;10.37;;;5.93;;
76640;SDS011;65538;50.798;6.064;2023-02-17T08:48:01;9.52;;;5.55;;
76640;SDS011;65538;50.798;6.064;2023-02-17T08:50:26;9.73;;;6.07;;
76640;SDS011;65538;50.798;6.064;2023-02-17T08:52:52;9.70;;;5.80;;
76640;SDS011;65538;50.798;6.064;2023-02-17T08:55:17;10.70;;;6.97;;
76640;SDS011;65538;50.798;6.064;2023-02-17T08:57:44;9.38;;;6.30;;
76640;SDS011;65538;50.798;6.064;2023-02-17T09:00:09;8.47;;;4.20;;
76640;SDS011;65538;50.798;6.064;2023-02-17T09:02:35;9.55;;;6.93;;
76640;SDS011;65538;50.798;6.064;2023-02-17T09:05:01;11.57;;;5.53;;
76640;SDS011;65538;50.798;6.064;2023-02-17T09:07:26;8.45;;;5.10;;
76640;SDS011;65538;50.798;6.064;2023-02-17T09:09:52;8.10;;;4.97;;
76640;SDS011;65538;50.798;6.064;2023-02-17T09:12:17;7.90;;;4.20;;
76640;SDS011;65538;50.798;6.064;2023-02-17T09:14:42;9.07;;;6.37;;
76640;SDS011;65538;50.798;6.064;2023-02-17T09:17:08;7.93;;;5.40;;
76640;SDS011;65538;50.798;6.064;2023-02-17T09:19:36;7.57;;;4.55;;
76640;SDS011;65538;50.798;6.064;2023-02-17T09:22:02;10.00;;;4.75;;
76640;SDS011;65538;50.798;6.064;2023-02-17T09:24:27;6.97;;;3.93;;
76640;SDS011;65538;50.798;6.064;2023-02-17T09:26:52;7.72;;;4.47;;
76640;SDS011;65538;50.798;6.064;2023-02-17T09:29:17;9.27;;;6.03;;
76640;SDS011;65538;50.798;6.064;2023-02-17T09:31:43;7.43;;;4.73;;
76640;SDS011;65538;50.798;6.064;2023-02-17T09:34:09;7.43;;;4.50;;
76640;SDS011;65538;50.798;6.064;2023-02-17T09:36:38;6.30;;;3.60;;
76640;SDS011;65538;50.798;6.064;2023-02-17T09:43:57;7.95;;;4.75;;
76640;SDS011;65538;50.798;6.064;2023-02-17T09:46:25;7.05;;;4.72;;
76640;SDS011;65538;50.798;6.064;2023-02-17T09:48:51;6.57;;;4.47;;
76640;SDS011;65538;50.798;6.064;2023-02-17T09:51:20;7.43;;;4.65;;
76640;SDS011;65538;50.798;6.064;2023-02-17T09:56:44;8.32;;;4.93;;
76640;SDS011;65538;50.798;6.064;2023-02-17T09:59:13;8.05;;;3.80;;
76640;SDS011;65538;50.798;6.064;2023-02-17T10:01:40;6.20;;;3.13;;
76640;SDS011;65538;50.798;6.064;2023-02-17T10:04:48;5.38;;;3.55;;
76640;SDS011;65538;50.798;6.064;2023-02-17T10:06:58;5.47;;;3.17;;
76640;SDS011;65538;50.798;6.064;2023-02-17T10:09:27;4.65;;;3.15;;
76640;SDS011;65538;50.798;6.064;2023-02-17T10:12:11;5.35;;;3.03;;
76640;SDS011;65538;50.798;6.064;2023-02-17T10:14:58;5.70;;;3.28;;
76640;SDS011;65538;50.798;6.064;2023-02-17T10:20:04;5.80;;;3.25;;
76640;SDS011;65538;50.798;6.064;2023-02-17T10:22:31;5.60;;;3.08;;
76640;SDS011;65538;50.798;6.064;2023-02-17T10:24:57;5.25;;;3.38;;
76640;SDS011;65538;50.798;6.064;2023-02-17T10:27:31;6.97;;;3.38;;
76640;SDS011;65538;50.798;6.064;2023-02-17T10:32:30;4.60;;;2.67;;
76640;SDS011;65538;50.798;6.064;2023-02-17T10:38:11;4.45;;;2.58;;
76640;SDS011;65538;50.798;6.064;2023-02-17T10:40:38;4.70;;;2.63;;
76640;SDS011;65538;50.798;6.064;2023-02-17T10:43:04;5.78;;;2.78;;
76640;SDS011;65538;50.798;6.064;2023-02-17T10:48:05;5.38;;;3.03;;
76640;SDS011;65538;50.798;6.064;2023-02-17T10:50:31;6.22;;;2.78;;
76640;SDS011;65538;50.798;6.064;2023-02-17T10:52:56;5.55;;;2.63;;
76640;SDS011;65538;50.798;6.064;2023-02-17T10:55:24;3.50;;;2.17;;
76640;SDS011;65538;50.798;6.064;2023-02-17T10:57:56;7.57;;;2.30;;
76640;SDS011;65538;50.798;6.064;2023-02-17T11:00:22;4.20;;;1.90;;
76640;SDS011;65538;50.798;6.064;2023-02-17T11:02:48;4.38;;;2.15;;
76640;SDS011;65538;50.798;6.064;2023-02-17T11:05:19;4.38;;;2.70;;
76640;SDS011;65538;50.798;6.064;2023-02-17T11:07:45;3.95;;;2.40;;
76640;SDS011;65538;50.798;6.064;2023-02-17T11:10:26;6.13;;;2.45;;
76640;SDS011;65538;50.798;6.064;2023-02-17T11:12:52;4.32;;;2.10;;
76640;SDS011;65538;50.798;6.064;2023-02-17T11:15:21;3.40;;;2.13;;
76640;SDS011;65538;50.798;6.064;2023-02-17T11:17:47;3.50;;;1.60;;
76640;SDS011;65538;50.798;6.064;2023-02-17T11:22:39;4.40;;;2.23;;
76640;SDS011;65538;50.798;6.064;2023-02-17T11:25:16;5.25;;;2.10;;
76640;SDS011;65538;50.798;6.064;2023-02-17T11:27:48;6.72;;;2.03;;
76640;SDS011;65538;50.798;6.064;2023-02-17T11:30:14;3.90;;;2.13;;
76640;SDS011;65538;50.798;6.064;2023-02-17T11:32:39;6.05;;;1.80;;
76640;SDS011;65538;50.798;6.064;2023-02-17T11:35:16;3.80;;;1.87;;
76640;SDS011;65538;50.798;6.064;2023-02-17T11:37:44;3.72;;;1.90;;
76640;SDS011;65538;50.798;6.064;2023-02-17T11:43:04;4.30;;;2.20;;
76640;SDS011;65538;50.798;6.064;2023-02-17T11:45:35;4.50;;;1.95;;
76640;SDS011;65538;50.798;6.064;2023-02-17T11:50:48;4.57;;;2.00;;
76640;SDS011;65538;50.798;6.064;2023-02-17T11:53:22;4.05;;;1.88;;
76640;SDS011;65538;50.798;6.064;2023-02-17T12:01:02;3.95;;;1.80;;
76640;SDS011;65538;50.798;6.064;2023-02-17T12:08:37;5.05;;;2.33;;
76640;SDS011;65538;50.798;6.064;2023-02-17T12:19:00;3.70;;;2.30;;
76640;SDS011;65538;50.798;6.064;2023-02-17T12:21:34;3.97;;;2.13;;
76640;SDS011;65538;50.798;6.064;2023-02-17T12:26:38;3.97;;;2.00;;
76640;SDS011;65538;50.798;6.064;2023-02-17T12:29:10;3.53;;;2.00;;
76640;SDS011;65538;50.798;6.064;2023-02-17T12:34:24;5.03;;;2.22;;
76640;SDS011;65538;50.798;6.064;2023-02-17T12:36:51;6.50;;;3.33;;
76640;SDS011;65538;50.798;6.064;2023-02-17T12:42:32;5.05;;;2.13;;
76640;SDS011;65538;50.798;6.064;2023-02-17T12:44:40;3.70;;;1.98;;
76640;SDS011;65538;50.798;6.064;2023-02-17T12:47:11;7.40;;;3.45;;
76640;SDS011;65538;50.798;6.064;2023-02-17T12:49:43;4.78;;;2.60;;
76640;SDS011;65538;50.798;6.064;2023-02-17T12:52:20;3.95;;;2.08;;
76640;SDS011;65538;50.798;6.064;2023-02-17T12:54:49;3.72;;;2.50;;
76640;SDS011;65538;50.798;6.064;2023-02-17T12:57:26;7.88;;;3.47;;
76640;SDS011;65538;50.798;6.064;2023-02-17T12:59:53;8.05;;;3.28;;
76640;SDS011;65538;50.798;6.064;2023-02-17T13:02:24;5.13;;;2.22;;
76640;SDS011;65538;50.798;6.064;2023-02-17T13:07:25;5.60;;;2.80;;
76640;SDS011;65538;50.798;6.064;2023-02-17T13:09:56;5.50;;;2.90;;
76640;SDS011;65538;50.798;6.064;2023-02-17T13:14:58;8.07;;;3.13;;
76640;SDS011;65538;50.798;6.064;2023-02-17T13:17:33;5.35;;;2.70;;
76640;SDS011;65538;50.798;6.064;2023-02-17T13:22:23;5.78;;;2.42;;
76640;SDS011;65538;50.798;6.064;2023-02-17T13:24:52;4.63;;;2.50;;
76640;SDS011;65538;50.798;6.064;2023-02-17T13:27:28;7.20;;;3.42;;
76640;SDS011;65538;50.798;6.064;2023-02-17T13:32:26;4.30;;;2.55;;
76640;SDS011;65538;50.798;6.064;2023-02-17T13:34:58;7.57;;;4.35;;
76640;SDS011;65538;50.798;6.064;2023-02-17T13:37:25;6.45;;;3.47;;
76640;SDS011;65538;50.798;6.064;2023-02-17T13:40:01;6.35;;;3.55;;
76640;SDS011;65538;50.798;6.064;2023-02-17T13:44:57;5.57;;;2.63;;
76640;SDS011;65538;50.798;6.064;2023-02-17T13:47:43;8.63;;;3.47;;
76640;SDS011;65538;50.798;6.064;2023-02-17T13:50:25;8.30;;;3.17;;
76640;SDS011;65538;50.798;6.064;2023-02-17T13:52:52;7.05;;;3.33;;
76640;SDS011;65538;50.798;6.064;2023-02-17T13:55:18;7.05;;;3.38;;
76640;SDS011;65538;50.798;6.064;2023-02-17T13:57:43;5.80;;;2.65;;
76640;SDS011;65538;50.798;6.064;2023-02-17T14:02:43;9.35;;;3.42;;
76640;SDS011;65538;50.798;6.064;2023-02-17T14:05:19;7.93;;;4.10;;
76640;SDS011;65538;50.798;6.064;2023-02-17T14:07:46;5.53;;;3.75;;
76640;SDS011;65538;50.798;6.064;2023-02-17T14:10:21;7.90;;;3.60;;
76640;SDS011;65538;50.798;6.064;2023-02-17T14:12:47;8.02;;;3.38;;
76640;SDS011;65538;50.798;6.064;2023-02-17T14:15:18;6.82;;;3.30;;
76640;SDS011;65538;50.798;6.064;2023-02-17T14:17:44;7.43;;;4.30;;
76640;SDS011;65538;50.798;6.064;2023-02-17T14:20:29;7.43;;;3.30;;
76640;SDS011;65538;50.798;6.064;2023-02-17T14:22:59;8.05;;;3.63;;
76640;SDS011;65538;50.798;6.064;2023-02-17T14:25:26;6.72;;;3.50;;
76640;SDS011;65538;50.798;6.064;2023-02-17T14:27:51;5.60;;;2.30;;
76640;SDS011;65538;50.798;6.064;2023-02-17T14:32:59;3.92;;;1.90;;
76640;SDS011;65538;50.798;6.064;2023-02-17T14:35:24;4.90;;;1.92;;
76640;SDS011;65538;50.798;6.064;2023-02-17T14:37:49;4.90;;;2.47;;
76640;SDS011;65538;50.798;6.064;2023-02-17T14:40:24;4.22;;;2.08;;
76640;SDS011;65538;50.798;6.064;2023-02-17T14:42:49;3.80;;;1.85;;
76640;SDS011;65538;50.798;6.064;2023-02-17T14:45:15;4.82;;;2.03;;
76640;SDS011;65538;50.798;6.064;2023-02-17T14:47:41;3.50;;;1.73;;
76640;SDS011;65538;50.798;6.064;2023-02-17T14:50:07;3.63;;;2.10;;
76640;SDS011;65538;50.798;6.064;2023-02-17T14:52:32;3.85;;;1.83;;
76640;SDS011;65538;50.798;6.064;2023-02-17T14:55:00;5.65;;;1.85;;
76640;SDS011;65538;50.798;6.064;2023-02-17T14:57:26;7.37;;;2.17;;
76640;SDS011;65538;50.798;6.064;2023-02-17T14:59:51;2.72;;;1.98;;
76640;SDS011;65538;50.798;6.064;2023-02-17T15:02:21;5.55;;;2.17;;
76640;SDS011;65538;50.798;6.064;2023-02-17T15:04:48;2.95;;;1.30;;
76640;SDS011;65538;50.798;6.064;2023-02-17T15:07:14;4.30;;;1.83;;
76640;SDS011;65538;50.798;6.064;2023-02-17T15:09:40;4.78;;;2.13;;
76640;SDS011;65538;50.798;6.064;2023-02-17T15:12:10;3.65;;;2.17;;
76640;SDS011;65538;50.798;6.064;2023-02-17T15:14:37;6.63;;;2.80;;
76640;SDS011;65538;50.798;6.064;2023-02-17T15:17:02;3.93;;;2.03;;
76640;SDS011;65538;50.798;6.064;2023-02-17T15:19:27;4.70;;;2.57;;
76640;SDS011;65538;50.798;6.064;2023-02-17T15:21:52;7.57;;;3.00;;
76640;SDS011;65538;50.798;6.064;2023-02-17T15:24:19;8.00;;;3.87;;
76640;SDS011;65538;50.798;6.064;2023-02-17T15:26:46;7.88;;;3.65;;
76640;SDS011;65538;50.798;6.064;2023-02-17T15:29:22;5.60;;;4.25;;
76640;SDS011;65538;50.798;6.064;2023-02-17T15:31:48;9.65;;;4.30;;
76640;SDS011;65538;50.798;6.064;2023-02-17T15:34:17;7.78;;;4.13;;
76640;SDS011;65538;50.798;6.064;2023-02-17T15:36:43;7.70;;;4.50;;
76640;SDS011;65538;50.798;6.064;2023-02-17T15:39:09;8.17;;;4.73;;
76640;SDS011;65538;50.798;6.064;2023-02-17T15:41:35;7.60;;;4.40;;
76640;SDS011;65538;50.798;6.064;2023-02-17T15:44:00;6.97;;;4.17;;
76640;SDS011;65538;50.798;6.064;2023-02-17T15:46:30;6.05;;;3.60;;
76640;SDS011;65538;50.798;6.064;2023-02-17T15:48:56;9.38;;;4.05;;
76640;SDS011;65538;50.798;6.064;2023-02-17T15:51:22;6.40;;;3.50;;
76640;SDS011;65538;50.798;6.064;2023-02-17T15:53:48;7.57;;;3.42;;
76640;SDS011;65538;50.798;6.064;2023-02-17T15:56:19;6.25;;;3.33;;
76640;SDS011;65538;50.798;6.064;2023-02-17T15:58:46;5.82;;;3.15;;
76640;SDS011;65538;50.798;6.064;2023-02-17T16:03:44;6.82;;;4.07;;
76640;SDS011;65538;50.798;6.064;2023-02-17T16:06:09;6.80;;;3.63;;
76640;SDS011;65538;50.798;6.064;2023-02-17T16:08:34;5.50;;;3.28;;
76640;SDS011;65538;50.798;6.064;2023-02-17T16:11:00;8.00;;;4.10;;
76640;SDS011;65538;50.798;6.064;2023-02-17T16:13:25;6.93;;;3.57;;
76640;SDS011;65538;50.798;6.064;2023-02-17T16:15:50;6.97;;;4.03;;
76640;SDS011;65538;50.798;6.064;2023-02-17T16:18:18;9.70;;;3.65;;
76640;SDS011;65538;50.798;6.064;2023-02-17T16:20:44;7.10;;;2.60;;
76640;SDS011;65538;50.798;6.064;2023-02-17T16:23:11;5.80;;;2.65;;
76640;SDS011;65538;50.798;6.064;2023-02-17T16:25:36;8.20;;;3.80;;